sensor_id;sensor_type;location;lat;lon;timestamp;pressure;altitude;pressure_sealevel;temperature;humidity
71313;BME280;59104;44.738;20.612;2022-07-10T00:00:34;100214.84;;;20.08;52.35
71313;BME280;59104;44.738;20.612;2022-07-10T00:03:02;100228.88;;;20.23;53.23
71313;BME280;59104;44.738;20.612;2022-07-10T00:05:28;100237.28;;;20.22;52.69
71313;BME280;59104;44.738;20.612;2022-07-10T00:07:54;100228.50;;;20.20;53.86
71313;BME280;59104;44.738;20.612;2022-07-10T00:10:21;100227.63;;;20.26;55.03
71313;BME280;59104;44.738;20.612;2022-07-10T00:12:47;100232.94;;;20.39;55.32
71313;BME280;59104;44.738;20.612;2022-07-10T00:15:14;100221.66;;;20.42;55.28
71313;BME280;59104;44.738;20.612;2022-07-10T00:17:41;100223.00;;;20.51;55.02
71313;BME280;59104;44.738;20.612;2022-07-10T00:20:08;100218.63;;;20.50;55.52
71313;BME280;59104;44.738;20.612;2022-07-10T00:22:36;100219.22;;;20.52;55.65
71313;BME280;59104;44.738;20.612;2022-07-10T00:25:06;100216.66;;;20.57;55.75
71313;BME280;59104;44.738;20.612;2022-07-10T00:27:32;100195.44;;;20.47;55.75
71313;BME280;59104;44.738;20.612;2022-07-10T00:29:58;100204.56;;;20.53;55.10
71313;BME280;59104;44.738;20.612;2022-07-10T00:32:24;100200.50;;;20.44;55.14
71313;BME280;59104;44.738;20.612;2022-07-10T00:34:50;100211.13;;;20.45;55.41
71313;BME280;59104;44.738;20.612;2022-07-10T00:37:15;100200.66;;;20.31;54.61
71313;BME280;59104;44.738;20.612;2022-07-10T00:39:41;100218.81;;;20.30;55.02
71313;BME280;59104;44.738;20.612;2022-07-10T00:44:33;100214.63;;;20.10;54.98
71313;BME280;59104;44.738;20.612;2022-07-10T00:46:59;100208.69;;;19.94;55.21
71313;BME280;59104;44.738;20.612;2022-07-10T00:49:25;100222.28;;;19.94;55.84
71313;BME280;59104;44.738;20.612;2022-07-10T00:51:51;100194.69;;;19.73;56.62
71313;BME280;59104;44.738;20.612;2022-07-10T00:54:17;100207.22;;;19.74;56.77
71313;BME280;59104;44.738;20.612;2022-07-10T00:56:43;100212.22;;;19.77;56.45
71313;BME280;59104;44.738;20.612;2022-07-10T00:59:09;100203.13;;;19.65;56.49
71313;BME280;59104;44.738;20.612;2022-07-10T01:01:35;100210.25;;;19.59;56.64
71313;BME280;59104;44.738;20.612;2022-07-10T01:04:01;100206.94;;;19.57;56.80
71313;BME280;59104;44.738;20.612;2022-07-10T01:06:28;100202.16;;;19.53;57.47
71313;BME280;59104;44.738;20.612;2022-07-10T01:08:53;100191.59;;;19.44;56.22
71313;BME280;59104;44.738;20.612;2022-07-10T01:11:19;100180.56;;;19.33;56.56
71313;BME280;59104;44.738;20.612;2022-07-10T01:13:45;100192.25;;;19.33;57.18
71313;BME280;59104;44.738;20.612;2022-07-10T01:16:12;100176.72;;;19.16;57.26
71313;BME280;59104;44.738;20.612;2022-07-10T01:18:37;100196.84;;;19.33;57.38
71313;BME280;59104;44.738;20.612;2022-07-10T01:21:03;100192.47;;;19.32;57.27
71313;BME280;59104;44.738;20.612;2022-07-10T01:23:29;100192.47;;;19.32;57.56
71313;BME280;59104;44.738;20.612;2022-07-10T01:25:54;100166.03;;;19.21;58.42
71313;BME280;59104;44.738;20.612;2022-07-10T01:28:21;100186.38;;;19.43;56.85
71313;BME280;59104;44.738;20.612;2022-07-10T01:30:48;100190.31;;;19.47;57.21
71313;BME280;59104;44.738;20.612;2022-07-10T01:33:13;100163.41;;;19.45;58.00
71313;BME280;59104;44.738;20.612;2022-07-10T01:35:40;100177.69;;;19.59;56.33
71313;BME280;59104;44.738;20.612;2022-07-10T01:38:06;100161.75;;;19.44;56.55
71313;BME280;59104;44.738;20.612;2022-07-10T01:40:32;100168.59;;;19.47;56.92
71313;BME280;59104;44.738;20.612;2022-07-10T01:42:58;100183.00;;;19.48;57.22
71313;BME280;59104;44.738;20.612;2022-07-10T01:45:24;100169.47;;;19.41;57.88
71313;BME280;59104;44.738;20.612;2022-07-10T01:47:50;100153.06;;;19.29;57.44
71313;BME280;59104;44.738;20.612;2022-07-10T01:50:16;100187.19;;;19.43;58.14
71313;BME280;59104;44.738;20.612;2022-07-10T01:52:41;100152.44;;;19.27;57.44
71313;BME280;59104;44.738;20.612;2022-07-10T01:55:07;100174.69;;;19.42;58.50
71313;BME280;59104;44.738;20.612;2022-07-10T01:57:33;100158.66;;;19.34;58.23
71313;BME280;59104;44.738;20.612;2022-07-10T01:59:59;100159.88;;;19.38;58.62
71313;BME280;59104;44.738;20.612;2022-07-10T02:02:25;100158.22;;;19.37;58.03
71313;BME280;59104;44.738;20.612;2022-07-10T02:04:51;100163.25;;;19.34;58.26
71313;BME280;59104;44.738;20.612;2022-07-10T02:07:18;100169.50;;;19.34;58.70
71313;BME280;59104;44.738;20.612;2022-07-10T02:09:47;100160.31;;;19.35;58.41
71313;BME280;59104;44.738;20.612;2022-07-10T02:12:13;100145.22;;;19.15;57.82
71313;BME280;59104;44.738;20.612;2022-07-10T02:14:40;100131.72;;;19.08;59.07
71313;BME280;59104;44.738;20.612;2022-07-10T02:17:06;100160.03;;;19.19;59.10
71313;BME280;59104;44.738;20.612;2022-07-10T02:19:33;100156.47;;;19.18;59.03
71313;BME280;59104;44.738;20.612;2022-07-10T02:21:59;100157.34;;;19.12;58.96
71313;BME280;59104;44.738;20.612;2022-07-10T02:24:25;100133.19;;;19.04;58.98
71313;BME280;59104;44.738;20.612;2022-07-10T02:26:51;100148.63;;;19.10;59.31
71313;BME280;59104;44.738;20.612;2022-07-10T02:29:17;100128.66;;;18.98;58.64
71313;BME280;59104;44.738;20.612;2022-07-10T02:31:43;100134.13;;;18.91;59.74
71313;BME280;59104;44.738;20.612;2022-07-10T02:34:10;100152.19;;;19.04;59.24
71313;BME280;59104;44.738;20.612;2022-07-10T02:36:36;100129.41;;;18.80;59.36
71313;BME280;59104;44.738;20.612;2022-07-10T02:39:05;100147.50;;;18.86;59.98
71313;BME280;59104;44.738;20.612;2022-07-10T02:41:30;100143.81;;;18.74;60.27
71313;BME280;59104;44.738;20.612;2022-07-10T02:43:56;100151.72;;;18.76;60.35
71313;BME280;59104;44.738;20.612;2022-07-10T02:46:22;100145.25;;;18.77;59.65
71313;BME280;59104;44.738;20.612;2022-07-10T02:48:47;100143.19;;;18.72;60.23
71313;BME280;59104;44.738;20.612;2022-07-10T02:51:13;100150.06;;;18.75;60.33
71313;BME280;59104;44.738;20.612;2022-07-10T02:53:38;100125.16;;;18.53;60.12
71313;BME280;59104;44.738;20.612;2022-07-10T02:56:04;100130.97;;;18.57;60.42
71313;BME280;59104;44.738;20.612;2022-07-10T02:58:31;100138.91;;;18.58;60.21
71313;BME280;59104;44.738;20.612;2022-07-10T03:00:56;100145.94;;;18.59;60.52
71313;BME280;59104;44.738;20.612;2022-07-10T03:03:22;100159.13;;;18.56;61.31
71313;BME280;59104;44.738;20.612;2022-07-10T03:05:48;100154.03;;;18.72;61.34
71313;BME280;59104;44.738;20.612;2022-07-10T03:08:13;100139.03;;;18.70;60.55
71313;BME280;59104;44.738;20.612;2022-07-10T03:10:39;100142.72;;;18.82;60.63
71313;BME280;59104;44.738;20.612;2022-07-10T03:13:06;100136.19;;;18.96;60.41
71313;BME280;59104;44.738;20.612;2022-07-10T03:15:31;100127.09;;;18.84;59.59
71313;BME280;59104;44.738;20.612;2022-07-10T03:17:58;100124.66;;;18.69;57.56
71313;BME280;59104;44.738;20.612;2022-07-10T03:20:23;100147.97;;;18.77;59.49
71313;BME280;59104;44.738;20.612;2022-07-10T03:22:49;100141.09;;;18.74;60.14
71313;BME280;59104;44.738;20.612;2022-07-10T03:25:15;100142.38;;;18.72;59.68
71313;BME280;59104;44.738;20.612;2022-07-10T03:27:41;100132.38;;;18.66;58.94
71313;BME280;59104;44.738;20.612;2022-07-10T03:30:07;100134.09;;;18.60;59.96
71313;BME280;59104;44.738;20.612;2022-07-10T03:32:33;100134.09;;;18.60;60.65
71313;BME280;59104;44.738;20.612;2022-07-10T03:34:59;100142.31;;;18.78;60.65
71313;BME280;59104;44.738;20.612;2022-07-10T03:37:25;100136.53;;;18.75;60.63
71313;BME280;59104;44.738;20.612;2022-07-10T03:39:51;100133.63;;;18.70;60.65
71313;BME280;59104;44.738;20.612;2022-07-10T03:42:17;100144.41;;;18.76;60.70
71313;BME280;59104;44.738;20.612;2022-07-10T03:44:42;100142.97;;;18.74;60.17
71313;BME280;59104;44.738;20.612;2022-07-10T03:47:08;100149.84;;;18.76;60.74
71313;BME280;59104;44.738;20.612;2022-07-10T03:49:33;100132.78;;;18.69;60.73
71313;BME280;59104;44.738;20.612;2022-07-10T03:52:00;100144.38;;;18.83;60.43
71313;BME280;59104;44.738;20.612;2022-07-10T03:54:26;100139.19;;;18.81;59.83
71313;BME280;59104;44.738;20.612;2022-07-10T03:56:52;100142.25;;;18.91;60.53
71313;BME280;59104;44.738;20.612;2022-07-10T03:59:36;100144.47;;;19.01;61.17
71313;BME280;59104;44.738;20.612;2022-07-10T04:02:02;100154.69;;;19.06;59.75
71313;BME280;59104;44.738;20.612;2022-07-10T04:04:28;100152.66;;;18.94;59.99
71313;BME280;59104;44.738;20.612;2022-07-10T04:06:53;100151.84;;;18.94;60.79
71313;BME280;59104;44.738;20.612;2022-07-10T04:09:20;100148.25;;;19.00;61.00
71313;BME280;59104;44.738;20.612;2022-07-10T04:11:45;100136.78;;;18.98;59.80
71313;BME280;59104;44.738;20.612;2022-07-10T04:14:11;100143.44;;;19.02;59.63
71313;BME280;59104;44.738;20.612;2022-07-10T04:16:36;100148.94;;;19.20;59.68
71313;BME280;59104;44.738;20.612;2022-07-10T04:19:02;100152.03;;;19.24;60.10
71313;BME280;59104;44.738;20.612;2022-07-10T04:21:27;100150.56;;;19.28;59.22
71313;BME280;59104;44.738;20.612;2022-07-10T04:23:53;100148.34;;;19.50;59.56
71313;BME280;59104;44.738;20.612;2022-07-10T04:26:19;100145.56;;;19.81;56.63
71313;BME280;59104;44.738;20.612;2022-07-10T04:28:44;100146.13;;;20.08;57.36
71313;BME280;59104;44.738;20.612;2022-07-10T04:31:10;100147.84;;;20.20;56.58
71313;BME280;59104;44.738;20.612;2022-07-10T04:33:36;100146.53;;;20.29;56.13
71313;BME280;59104;44.738;20.612;2022-07-10T04:36:02;100146.22;;;20.37;56.41
71313;BME280;59104;44.738;20.612;2022-07-10T04:38:27;100145.63;;;20.54;56.25
71313;BME280;59104;44.738;20.612;2022-07-10T04:40:54;100152.81;;;20.78;56.12
71313;BME280;59104;44.738;20.612;2022-07-10T04:43:20;100149.06;;;20.79;54.91
71313;BME280;59104;44.738;20.612;2022-07-10T04:45:46;100156.75;;;20.82;55.70
71313;BME280;59104;44.738;20.612;2022-07-10T04:48:12;100147.25;;;20.73;54.25
71313;BME280;59104;44.738;20.612;2022-07-10T04:50:37;100138.59;;;20.64;54.92
71313;BME280;59104;44.738;20.612;2022-07-10T04:53:03;100160.41;;;20.58;54.74
71313;BME280;59104;44.738;20.612;2022-07-10T04:55:29;100141.09;;;20.29;55.89
71313;BME280;59104;44.738;20.612;2022-07-10T04:57:55;100162.22;;;20.27;56.66
71313;BME280;59104;44.738;20.612;2022-07-10T05:00:20;100173.63;;;20.36;56.82
71313;BME280;59104;44.738;20.612;2022-07-10T05:02:46;100177.47;;;20.28;57.23
71313;BME280;59104;44.738;20.612;2022-07-10T05:05:12;100170.56;;;20.32;57.19
71313;BME280;59104;44.738;20.612;2022-07-10T05:07:38;100168.88;;;20.31;56.76
71313;BME280;59104;44.738;20.612;2022-07-10T05:10:04;100135.28;;;20.26;57.45
71313;BME280;59104;44.738;20.612;2022-07-10T05:12:30;100170.06;;;20.54;56.84
71313;BME280;59104;44.738;20.612;2022-07-10T05:14:55;100169.78;;;20.43;55.32
71313;BME280;59104;44.738;20.612;2022-07-10T05:17:22;100160.25;;;20.16;55.96
71313;BME280;59104;44.738;20.612;2022-07-10T05:19:47;100164.34;;;20.00;56.53
71313;BME280;59104;44.738;20.612;2022-07-10T05:22:13;100165.09;;;19.89;57.37
71313;BME280;59104;44.738;20.612;2022-07-10T05:24:39;100158.81;;;19.71;57.79
71313;BME280;59104;44.738;20.612;2022-07-10T05:27:05;100167.63;;;19.35;59.18
71313;BME280;59104;44.738;20.612;2022-07-10T05:29:30;100152.53;;;19.14;59.56
71313;BME280;59104;44.738;20.612;2022-07-10T05:31:56;100167.75;;;19.15;60.27
71313;BME280;59104;44.738;20.612;2022-07-10T05:34:21;100167.13;;;19.20;60.40
71313;BME280;59104;44.738;20.612;2022-07-10T05:36:47;100147.34;;;19.13;61.18
71313;BME280;59104;44.738;20.612;2022-07-10T05:39:13;100164.91;;;19.41;61.70
71313;BME280;59104;44.738;20.612;2022-07-10T05:41:38;100159.72;;;19.65;59.89
71313;BME280;59104;44.738;20.612;2022-07-10T05:44:04;100152.75;;;19.69;60.70
71313;BME280;59104;44.738;20.612;2022-07-10T05:46:30;100165.44;;;19.75;59.80
71313;BME280;59104;44.738;20.612;2022-07-10T05:48:55;100155.47;;;19.69;59.95
71313;BME280;59104;44.738;20.612;2022-07-10T05:51:21;100146.84;;;19.54;60.46
71313;BME280;59104;44.738;20.612;2022-07-10T05:53:46;100143.19;;;19.66;59.95
71313;BME280;59104;44.738;20.612;2022-07-10T05:56:12;100159.94;;;19.81;60.79
71313;BME280;59104;44.738;20.612;2022-07-10T05:58:37;100168.25;;;20.29;59.44
71313;BME280;59104;44.738;20.612;2022-07-10T06:01:03;100150.22;;;20.53;57.58
71313;BME280;59104;44.738;20.612;2022-07-10T06:03:29;100141.84;;;20.36;58.49
71313;BME280;59104;44.738;20.612;2022-07-10T06:05:54;100163.19;;;20.69;57.15
71313;BME280;59104;44.738;20.612;2022-07-10T06:08:20;100150.50;;;20.63;57.36
71313;BME280;59104;44.738;20.612;2022-07-10T06:10:46;100156.13;;;20.50;58.11
71313;BME280;59104;44.738;20.612;2022-07-10T06:13:11;100137.84;;;20.39;58.42
71313;BME280;59104;44.738;20.612;2022-07-10T06:15:37;100130.06;;;20.42;57.93
71313;BME280;59104;44.738;20.612;2022-07-10T06:18:03;100161.53;;;20.68;57.62
71313;BME280;59104;44.738;20.612;2022-07-10T06:20:29;100152.03;;;20.59;57.96
71313;BME280;59104;44.738;20.612;2022-07-10T06:22:57;100146.44;;;20.54;57.74
71313;BME280;59104;44.738;20.612;2022-07-10T06:25:22;100130.06;;;20.42;58.38
71313;BME280;59104;44.738;20.612;2022-07-10T06:27:48;100140.88;;;20.31;58.58
71313;BME280;59104;44.738;20.612;2022-07-10T06:30:14;100119.34;;;20.29;59.71
71313;BME280;59104;44.738;20.612;2022-07-10T06:32:40;100131.81;;;20.37;59.19
71313;BME280;59104;44.738;20.612;2022-07-10T06:35:07;100136.34;;;20.43;58.37
71313;BME280;59104;44.738;20.612;2022-07-10T06:37:34;100122.00;;;20.54;59.34
71313;BME280;59104;44.738;20.612;2022-07-10T06:39:59;100129.72;;;20.69;57.96
71313;BME280;59104;44.738;20.612;2022-07-10T06:42:25;100123.84;;;20.72;58.04
71313;BME280;59104;44.738;20.612;2022-07-10T06:44:57;100133.13;;;20.94;57.92
71313;BME280;59104;44.738;20.612;2022-07-10T06:47:23;100136.75;;;21.06;57.23
71313;BME280;59104;44.738;20.612;2022-07-10T06:50:08;100128.22;;;21.02;56.66
71313;BME280;59104;44.738;20.612;2022-07-10T06:52:36;100137.91;;;20.98;56.46
71313;BME280;59104;44.738;20.612;2022-07-10T06:55:02;100142.59;;;20.91;57.55
71313;BME280;59104;44.738;20.612;2022-07-10T06:57:30;100132.38;;;20.75;57.12
71313;BME280;59104;44.738;20.612;2022-07-10T06:59:56;100137.88;;;20.69;58.45
71313;BME280;59104;44.738;20.612;2022-07-10T07:02:21;100124.22;;;20.75;57.94
71313;BME280;59104;44.738;20.612;2022-07-10T07:04:47;100133.53;;;20.68;57.50
71313;BME280;59104;44.738;20.612;2022-07-10T07:07:13;100125.91;;;20.58;58.39
71313;BME280;59104;44.738;20.612;2022-07-10T07:09:40;100124.91;;;20.71;58.67
71313;BME280;59104;44.738;20.612;2022-07-10T07:12:08;100127.00;;;20.87;59.19
71313;BME280;59104;44.738;20.612;2022-07-10T07:14:34;100126.44;;;20.96;58.25
71313;BME280;59104;44.738;20.612;2022-07-10T07:17:00;100112.94;;;20.90;57.88
71313;BME280;59104;44.738;20.612;2022-07-10T07:19:31;100113.34;;;20.75;58.54
71313;BME280;59104;44.738;20.612;2022-07-10T07:21:58;100114.59;;;20.61;58.89
71313;BME280;59104;44.738;20.612;2022-07-10T07:24:43;100110.28;;;20.54;59.07
71313;BME280;59104;44.738;20.612;2022-07-10T07:27:10;100115.09;;;20.70;60.15
71313;BME280;59104;44.738;20.612;2022-07-10T07:29:36;100089.69;;;20.76;60.36
71313;BME280;59104;44.738;20.612;2022-07-10T07:32:02;100107.25;;;20.91;59.97
71313;BME280;59104;44.738;20.612;2022-07-10T07:34:28;100107.97;;;20.98;59.73
71313;BME280;59104;44.738;20.612;2022-07-10T07:36:54;100103.75;;;21.02;57.82
71313;BME280;59104;44.738;20.612;2022-07-10T07:39:19;100104.44;;;20.98;58.90
71313;BME280;59104;44.738;20.612;2022-07-10T07:41:45;100104.41;;;20.86;58.35
71313;BME280;59104;44.738;20.612;2022-07-10T07:44:10;100096.94;;;20.82;59.69
71313;BME280;59104;44.738;20.612;2022-07-10T07:46:37;100105.94;;;20.94;59.31
71313;BME280;59104;44.738;20.612;2022-07-10T07:49:03;100107.81;;;21.12;57.76
71313;BME280;59104;44.738;20.612;2022-07-10T07:51:28;100114.47;;;21.27;56.13
71313;BME280;59104;44.738;20.612;2022-07-10T07:53:55;100103.31;;;21.17;56.66
71313;BME280;59104;44.738;20.612;2022-07-10T07:56:20;100110.09;;;21.26;56.92
71313;BME280;59104;44.738;20.612;2022-07-10T07:58:46;100106.88;;;21.29;58.92
71313;BME280;59104;44.738;20.612;2022-07-10T08:01:11;100120.75;;;21.39;58.20
71313;BME280;59104;44.738;20.612;2022-07-10T08:03:37;100107.97;;;21.40;57.24
71313;BME280;59104;44.738;20.612;2022-07-10T08:06:03;100111.88;;;21.32;56.36
71313;BME280;59104;44.738;20.612;2022-07-10T08:08:29;100117.66;;;21.24;56.49
71313;BME280;59104;44.738;20.612;2022-07-10T08:10:55;100112.22;;;21.24;57.91
71313;BME280;59104;44.738;20.612;2022-07-10T08:13:21;100117.22;;;21.50;57.78
71313;BME280;59104;44.738;20.612;2022-07-10T08:15:47;100115.00;;;21.82;56.54
71313;BME280;59104;44.738;20.612;2022-07-10T08:18:13;100118.66;;;22.11;55.09
71313;BME280;59104;44.738;20.612;2022-07-10T08:20:39;100111.25;;;22.46;54.50
71313;BME280;59104;44.738;20.612;2022-07-10T08:23:05;100099.94;;;22.54;53.52
71313;BME280;59104;44.738;20.612;2022-07-10T08:25:31;100109.16;;;22.65;53.90
71313;BME280;59104;44.738;20.612;2022-07-10T08:28:04;100112.84;;;22.59;53.40
71313;BME280;59104;44.738;20.612;2022-07-10T08:30:35;100110.97;;;22.48;53.51
71313;BME280;59104;44.738;20.612;2022-07-10T08:33:01;100115.22;;;22.55;53.08
71313;BME280;59104;44.738;20.612;2022-07-10T08:35:26;100123.50;;;22.60;52.85
71313;BME280;59104;44.738;20.612;2022-07-10T08:37:52;100119.28;;;22.53;53.19
71313;BME280;59104;44.738;20.612;2022-07-10T08:40:21;100137.53;;;22.52;54.20
71313;BME280;59104;44.738;20.612;2022-07-10T08:42:47;100116.38;;;22.31;54.44
71313;BME280;59104;44.738;20.612;2022-07-10T08:45:13;100131.78;;;22.37;54.82
71313;BME280;59104;44.738;20.612;2022-07-10T08:47:39;100121.94;;;22.36;53.10
71313;BME280;59104;44.738;20.612;2022-07-10T08:50:24;100118.75;;;22.28;52.77
71313;BME280;59104;44.738;20.612;2022-07-10T08:53:01;100120.13;;;22.42;53.22
71313;BME280;59104;44.738;20.612;2022-07-10T08:55:30;100128.28;;;22.53;53.21
71313;BME280;59104;44.738;20.612;2022-07-10T08:57:55;100126.72;;;22.57;53.76
71313;BME280;59104;44.738;20.612;2022-07-10T09:00:22;100108.69;;;22.68;53.88
71313;BME280;59104;44.738;20.612;2022-07-10T09:02:47;100095.16;;;22.62;53.82
71313;BME280;59104;44.738;20.612;2022-07-10T09:05:13;100104.31;;;22.67;53.59
71313;BME280;59104;44.738;20.612;2022-07-10T09:07:40;100112.78;;;22.82;54.10
71313;BME280;59104;44.738;20.612;2022-07-10T09:10:11;100117.13;;;22.95;53.82
71313;BME280;59104;44.738;20.612;2022-07-10T09:13:06;100115.16;;;23.07;53.43
71313;BME280;59104;44.738;20.612;2022-07-10T09:15:32;100119.88;;;23.12;51.36
71313;BME280;59104;44.738;20.612;2022-07-10T09:18:02;100118.91;;;23.18;50.95
71313;BME280;59104;44.738;20.612;2022-07-10T09:23:19;100118.56;;;23.14;50.90
71313;BME280;59104;44.738;20.612;2022-07-10T09:25:50;100119.97;;;23.17;51.16
71313;BME280;59104;44.738;20.612;2022-07-10T09:28:18;100091.59;;;23.18;51.45
71313;BME280;59104;44.738;20.612;2022-07-10T09:30:45;100099.03;;;23.22;51.49
71313;BME280;59104;44.738;20.612;2022-07-10T09:36:05;100089.69;;;23.35;50.75
71313;BME280;59104;44.738;20.612;2022-07-10T09:41:20;100091.91;;;23.38;49.32
71313;BME280;59104;44.738;20.612;2022-07-10T09:43:52;100111.00;;;23.49;50.62
71313;BME280;59104;44.738;20.612;2022-07-10T09:46:21;100083.03;;;23.42;49.50
71313;BME280;59104;44.738;20.612;2022-07-10T09:48:47;100104.03;;;23.58;48.72
71313;BME280;59104;44.738;20.612;2022-07-10T09:51:13;100103.66;;;23.50;49.38
71313;BME280;59104;44.738;20.612;2022-07-10T09:53:42;100095.97;;;23.35;49.65
71313;BME280;59104;44.738;20.612;2022-07-10T09:56:11;100109.72;;;23.24;48.91
71313;BME280;59104;44.738;20.612;2022-07-10T09:58:37;100104.75;;;23.21;49.34
71313;BME280;59104;44.738;20.612;2022-07-10T10:01:08;100091.28;;;23.31;48.94
71313;BME280;59104;44.738;20.612;2022-07-10T10:03:38;100089.88;;;23.61;49.21
71313;BME280;59104;44.738;20.612;2022-07-10T10:06:16;100106.00;;;23.80;48.61
71313;BME280;59104;44.738;20.612;2022-07-10T10:08:59;100106.09;;;23.85;48.08
71313;BME280;59104;44.738;20.612;2022-07-10T10:11:26;100091.78;;;23.78;48.64
71313;BME280;59104;44.738;20.612;2022-07-10T10:13:52;100113.78;;;23.71;47.74
71313;BME280;59104;44.738;20.612;2022-07-10T10:16:19;100103.38;;;23.51;47.22
71313;BME280;59104;44.738;20.612;2022-07-10T10:18:46;100105.94;;;23.41;46.42
71313;BME280;59104;44.738;20.612;2022-07-10T10:21:32;100093.69;;;23.44;46.87
71313;BME280;59104;44.738;20.612;2022-07-10T10:24:00;100101.47;;;23.52;47.51
71313;BME280;59104;44.738;20.612;2022-07-10T10:26:26;100088.31;;;23.66;46.98
71313;BME280;59104;44.738;20.612;2022-07-10T10:28:52;100098.91;;;23.79;47.38
71313;BME280;59104;44.738;20.612;2022-07-10T10:31:20;100086.78;;;23.91;47.41
71313;BME280;59104;44.738;20.612;2022-07-10T10:33:46;100080.81;;;23.94;46.23
71313;BME280;59104;44.738;20.612;2022-07-10T10:36:15;100080.53;;;23.96;47.00
71313;BME280;59104;44.738;20.612;2022-07-10T10:39:01;100109.47;;;23.92;45.69
71313;BME280;59104;44.738;20.612;2022-07-10T10:41:44;100079.94;;;24.10;44.48
71313;BME280;59104;44.738;20.612;2022-07-10T10:47:04;100089.25;;;24.31;43.99
71313;BME280;59104;44.738;20.612;2022-07-10T10:52:15;100113.00;;;24.31;43.40
71313;BME280;59104;44.738;20.612;2022-07-10T10:59:57;100067.38;;;24.53;42.94
71313;BME280;59104;44.738;20.612;2022-07-10T11:02:29;100070.25;;;24.68;42.14
71313;BME280;59104;44.738;20.612;2022-07-10T11:07:55;100087.38;;;24.58;42.08
71313;BME280;59104;44.738;20.612;2022-07-10T11:10:29;100068.16;;;24.53;42.44
71313;BME280;59104;44.738;20.612;2022-07-10T11:13:18;100078.28;;;24.75;42.32
71313;BME280;59104;44.738;20.612;2022-07-10T11:15:48;100063.84;;;24.57;41.28
71313;BME280;59104;44.738;20.612;2022-07-10T11:18:19;100063.84;;;24.57;42.13
71313;BME280;59104;44.738;20.612;2022-07-10T11:20:51;100051.88;;;24.37;42.77
71313;BME280;59104;44.738;20.612;2022-07-10T11:26:05;100048.31;;;24.63;40.86
71313;BME280;59104;44.738;20.612;2022-07-10T11:28:55;100052.59;;;24.81;40.95
71313;BME280;59104;44.738;20.612;2022-07-10T11:31:25;100046.63;;;25.10;39.97
71313;BME280;59104;44.738;20.612;2022-07-10T11:33:55;100039.16;;;25.01;38.53
71313;BME280;59104;44.738;20.612;2022-07-10T11:36:23;100049.63;;;24.82;39.01
71313;BME280;59104;44.738;20.612;2022-07-10T11:39:06;100026.94;;;24.82;38.80
71313;BME280;59104;44.738;20.612;2022-07-10T11:41:32;100030.88;;;24.96;39.53
71313;BME280;59104;44.738;20.612;2022-07-10T11:43:59;100037.53;;;25.05;38.49
71313;BME280;59104;44.738;20.612;2022-07-10T11:46:30;100043.69;;;25.22;37.41
71313;BME280;59104;44.738;20.612;2022-07-10T11:48:57;100029.06;;;25.43;38.32
71313;BME280;59104;44.738;20.612;2022-07-10T11:51:30;100038.88;;;25.76;35.15
71313;BME280;59104;44.738;20.612;2022-07-10T11:54:01;100022.75;;;25.80;36.30
71313;BME280;59104;44.738;20.612;2022-07-10T11:56:32;100028.28;;;25.90;35.02
71313;BME280;59104;44.738;20.612;2022-07-10T11:59:09;100019.88;;;25.59;36.29
71313;BME280;59104;44.738;20.612;2022-07-10T12:01:47;100026.31;;;25.43;36.79
71313;BME280;59104;44.738;20.612;2022-07-10T12:04:14;100029.50;;;25.30;36.87
71313;BME280;59104;44.738;20.612;2022-07-10T12:06:43;100038.63;;;25.41;37.17
71313;BME280;59104;44.738;20.612;2022-07-10T12:09:11;100033.28;;;25.56;36.52
71313;BME280;59104;44.738;20.612;2022-07-10T12:11:39;100022.06;;;25.57;36.13
71313;BME280;59104;44.738;20.612;2022-07-10T12:14:16;100029.00;;;25.70;36.09
71313;BME280;59104;44.738;20.612;2022-07-10T12:16:49;100036.44;;;25.80;36.37
71313;BME280;59104;44.738;20.612;2022-07-10T12:19:21;100016.66;;;25.73;34.88
71313;BME280;59104;44.738;20.612;2022-07-10T12:21:48;100032.97;;;25.99;34.04
71313;BME280;59104;44.738;20.612;2022-07-10T12:24:16;100035.84;;;26.25;34.69
71313;BME280;59104;44.738;20.612;2022-07-10T12:26:43;100017.25;;;26.37;34.84
71313;BME280;59104;44.738;20.612;2022-07-10T12:29:26;100012.00;;;26.25;34.29
71313;BME280;59104;44.738;20.612;2022-07-10T12:31:54;100009.69;;;25.97;33.05
71313;BME280;59104;44.738;20.612;2022-07-10T12:34:32;100018.69;;;25.92;33.20
71313;BME280;59104;44.738;20.612;2022-07-10T12:37:06;99979.19;;;25.88;34.03
71313;BME280;59104;44.738;20.612;2022-07-10T12:39:36;100011.47;;;26.23;34.26
71313;BME280;59104;44.738;20.612;2022-07-10T12:42:05;100022.91;;;26.10;34.47
71313;BME280;59104;44.738;20.612;2022-07-10T12:44:45;100029.31;;;25.79;35.02
71313;BME280;59104;44.738;20.612;2022-07-10T12:47:15;100028.84;;;25.50;35.33
71313;BME280;59104;44.738;20.612;2022-07-10T12:50:03;100039.22;;;25.48;34.48
71313;BME280;59104;44.738;20.612;2022-07-10T12:52:32;100012.78;;;25.63;34.32
71313;BME280;59104;44.738;20.612;2022-07-10T12:57:58;100016.59;;;26.14;34.09
71313;BME280;59104;44.738;20.612;2022-07-10T13:00:32;99995.97;;;26.02;34.36
71313;BME280;59104;44.738;20.612;2022-07-10T13:03:02;100010.47;;;25.92;32.61
71313;BME280;59104;44.738;20.612;2022-07-10T13:05:30;99998.53;;;26.18;32.40
71313;BME280;59104;44.738;20.612;2022-07-10T13:08:17;100003.53;;;27.88;30.84
71313;BME280;59104;44.738;20.612;2022-07-10T13:10:55;99982.78;;;31.21;25.99
71313;BME280;59104;44.738;20.612;2022-07-10T13:13:21;99988.81;;;34.27;22.23